sensor_id;sensor_type;location;lat;lon;timestamp;P1;durP1;ratioP1;P2;durP2;ratioP2
59302;SDS011;45074;52.764;6.896;2023-08-24T00:00:56;7.47;;;3.80;;
59302;SDS011;45074;52.764;6.896;2023-08-24T00:03:22;6.82;;;3.97;;
59302;SDS011;45074;52.764;6.896;2023-08-24T00:05:48;6.90;;;3.90;;
59302;SDS011;45074;52.764;6.896;2023-08-24T00:08:14;6.88;;;3.65;;
59302;SDS011;45074;52.764;6.896;2023-08-24T00:10:42;5.80;;;3.78;;
59302;SDS011;45074;52.764;6.896;2023-08-24T00:13:11;8.68;;;4.03;;
59302;SDS011;45074;52.764;6.896;2023-08-24T00:15:37;7.18;;;4.00;;
59302;SDS011;45074;52.764;6.896;2023-08-24T00:18:04;10.00;;;4.40;;
59302;SDS011;45074;52.764;6.896;2023-08-24T00:20:30;6.65;;;4.50;;
59302;SDS011;45074;52.764;6.896;2023-08-24T00:22:58;12.00;;;4.93;;
59302;SDS011;45074;52.764;6.896;2023-08-24T00:25:24;7.90;;;4.85;;
59302;SDS011;45074;52.764;6.896;2023-08-24T00:27:51;9.00;;;5.57;;
59302;SDS011;45074;52.764;6.896;2023-08-24T00:30:20;9.18;;;4.95;;
59302;SDS011;45074;52.764;6.896;2023-08-24T00:32:46;9.05;;;5.20;;
59302;SDS011;45074;52.764;6.896;2023-08-24T00:35:12;11.93;;;5.93;;
59302;SDS011;45074;52.764;6.896;2023-08-24T00:37:38;9.85;;;5.35;;
59302;SDS011;45074;52.764;6.896;2023-08-24T00:40:05;9.18;;;5.18;;
59302;SDS011;45074;52.764;6.896;2023-08-24T00:42:38;9.25;;;5.15;;
59302;SDS011;45074;52.764;6.896;2023-08-24T00:45:05;9.52;;;5.88;;
59302;SDS011;45074;52.764;6.896;2023-08-24T00:47:31;11.90;;;6.13;;
59302;SDS011;45074;52.764;6.896;2023-08-24T00:49:59;12.07;;;5.70;;
59302;SDS011;45074;52.764;6.896;2023-08-24T00:52:25;8.77;;;5.50;;
59302;SDS011;45074;52.764;6.896;2023-08-24T00:54:55;10.82;;;5.65;;
59302;SDS011;45074;52.764;6.896;2023-08-24T00:57:21;10.48;;;6.15;;
59302;SDS011;45074;52.764;6.896;2023-08-24T00:59:48;10.15;;;6.22;;
59302;SDS011;45074;52.764;6.896;2023-08-24T01:02:14;12.30;;;6.07;;
59302;SDS011;45074;52.764;6.896;2023-08-24T01:04:40;8.15;;;5.93;;
59302;SDS011;45074;52.764;6.896;2023-08-24T01:07:07;10.75;;;5.78;;
59302;SDS011;45074;52.764;6.896;2023-08-24T01:09:34;11.23;;;5.93;;
59302;SDS011;45074;52.764;6.896;2023-08-24T01:12:02;10.63;;;5.82;;
59302;SDS011;45074;52.764;6.896;2023-08-24T01:14:55;9.13;;;5.72;;
59302;SDS011;45074;52.764;6.896;2023-08-24T01:17:22;10.35;;;6.22;;
59302;SDS011;45074;52.764;6.896;2023-08-24T01:19:49;10.93;;;7.05;;
59302;SDS011;45074;52.764;6.896;2023-08-24T01:25:14;13.45;;;6.97;;
59302;SDS011;45074;52.764;6.896;2023-08-24T01:27:45;12.60;;;7.30;;
59302;SDS011;45074;52.764;6.896;2023-08-24T01:30:11;11.27;;;6.05;;
59302;SDS011;45074;52.764;6.896;2023-08-24T01:32:37;11.18;;;6.38;;
59302;SDS011;45074;52.764;6.896;2023-08-24T01:35:04;12.00;;;6.32;;
59302;SDS011;45074;52.764;6.896;2023-08-24T01:37:32;10.13;;;6.95;;
59302;SDS011;45074;52.764;6.896;2023-08-24T01:40:15;12.45;;;6.90;;
59302;SDS011;45074;52.764;6.896;2023-08-24T01:42:59;12.73;;;7.57;;
59302;SDS011;45074;52.764;6.896;2023-08-24T01:45:29;12.00;;;7.93;;
59302;SDS011;45074;52.764;6.896;2023-08-24T01:47:56;12.68;;;7.78;;
59302;SDS011;45074;52.764;6.896;2023-08-24T01:50:23;14.85;;;8.38;;
59302;SDS011;45074;52.764;6.896;2023-08-24T01:52:49;13.85;;;8.20;;
59302;SDS011;45074;52.764;6.896;2023-08-24T01:55:19;13.95;;;8.63;;
59302;SDS011;45074;52.764;6.896;2023-08-24T01:57:45;11.32;;;7.90;;
59302;SDS011;45074;52.764;6.896;2023-08-24T02:00:11;12.35;;;8.32;;
59302;SDS011;45074;52.764;6.896;2023-08-24T02:02:36;11.63;;;8.30;;
59302;SDS011;45074;52.764;6.896;2023-08-24T02:05:02;10.98;;;8.23;;
59302;SDS011;45074;52.764;6.896;2023-08-24T02:07:29;12.20;;;7.47;;
59302;SDS011;45074;52.764;6.896;2023-08-24T02:09:55;11.98;;;8.38;;
59302;SDS011;45074;52.764;6.896;2023-08-24T02:12:21;14.85;;;9.00;;
59302;SDS011;45074;52.764;6.896;2023-08-24T02:14:47;12.38;;;8.32;;
59302;SDS011;45074;52.764;6.896;2023-08-24T02:17:13;11.30;;;7.88;;
59302;SDS011;45074;52.764;6.896;2023-08-24T02:19:39;11.57;;;7.88;;
59302;SDS011;45074;52.764;6.896;2023-08-24T02:22:08;11.80;;;7.90;;
59302;SDS011;45074;52.764;6.896;2023-08-24T02:24:34;15.75;;;9.80;;
59302;SDS011;45074;52.764;6.896;2023-08-24T02:27:00;11.80;;;8.40;;
59302;SDS011;45074;52.764;6.896;2023-08-24T02:29:26;11.23;;;8.10;;
59302;SDS011;45074;52.764;6.896;2023-08-24T02:31:53;13.13;;;8.25;;
59302;SDS011;45074;52.764;6.896;2023-08-24T02:34:19;13.25;;;8.95;;
59302;SDS011;45074;52.764;6.896;2023-08-24T02:36:45;13.68;;;9.15;;
59302;SDS011;45074;52.764;6.896;2023-08-24T02:39:11;11.50;;;7.97;;
59302;SDS011;45074;52.764;6.896;2023-08-24T02:41:37;13.68;;;8.68;;
59302;SDS011;45074;52.764;6.896;2023-08-24T02:44:03;13.52;;;8.75;;
59302;SDS011;45074;52.764;6.896;2023-08-24T02:46:29;13.73;;;8.35;;
59302;SDS011;45074;52.764;6.896;2023-08-24T02:48:55;13.95;;;8.18;;
59302;SDS011;45074;52.764;6.896;2023-08-24T02:51:22;10.90;;;7.63;;
59302;SDS011;45074;52.764;6.896;2023-08-24T02:53:48;14.02;;;7.88;;
59302;SDS011;45074;52.764;6.896;2023-08-24T02:56:14;12.20;;;7.63;;
59302;SDS011;45074;52.764;6.896;2023-08-24T02:58:40;11.05;;;7.45;;
59302;SDS011;45074;52.764;6.896;2023-08-24T03:01:07;11.48;;;7.68;;
59302;SDS011;45074;52.764;6.896;2023-08-24T03:03:33;13.80;;;7.70;;
59302;SDS011;45074;52.764;6.896;2023-08-24T03:06:03;12.80;;;7.30;;
59302;SDS011;45074;52.764;6.896;2023-08-24T03:08:31;13.13;;;6.97;;
59302;SDS011;45074;52.764;6.896;2023-08-24T03:10:58;12.80;;;7.05;;
59302;SDS011;45074;52.764;6.896;2023-08-24T03:13:25;11.38;;;7.25;;
59302;SDS011;45074;52.764;6.896;2023-08-24T03:15:51;12.93;;;6.90;;
59302;SDS011;45074;52.764;6.896;2023-08-24T03:18:17;11.13;;;6.93;;
59302;SDS011;45074;52.764;6.896;2023-08-24T03:20:43;12.15;;;6.75;;
59302;SDS011;45074;52.764;6.896;2023-08-24T03:23:10;13.68;;;6.75;;
59302;SDS011;45074;52.764;6.896;2023-08-24T03:25:37;11.13;;;7.03;;
59302;SDS011;45074;52.764;6.896;2023-08-24T03:28:04;12.90;;;6.55;;
59302;SDS011;45074;52.764;6.896;2023-08-24T03:30:30;12.10;;;6.53;;
59302;SDS011;45074;52.764;6.896;2023-08-24T03:32:56;10.68;;;6.88;;
59302;SDS011;45074;52.764;6.896;2023-08-24T03:35:24;10.63;;;6.78;;
59302;SDS011;45074;52.764;6.896;2023-08-24T03:37:50;11.43;;;6.72;;
59302;SDS011;45074;52.764;6.896;2023-08-24T03:40:16;11.07;;;6.68;;
59302;SDS011;45074;52.764;6.896;2023-08-24T03:42:42;13.38;;;6.40;;
59302;SDS011;45074;52.764;6.896;2023-08-24T03:45:08;11.30;;;7.00;;
59302;SDS011;45074;52.764;6.896;2023-08-24T03:47:35;11.68;;;6.55;;
59302;SDS011;45074;52.764;6.896;2023-08-24T03:50:01;12.85;;;7.20;;
59302;SDS011;45074;52.764;6.896;2023-08-24T03:52:27;12.07;;;6.93;;
59302;SDS011;45074;52.764;6.896;2023-08-24T03:54:53;12.60;;;6.63;;
59302;SDS011;45074;52.764;6.896;2023-08-24T03:57:19;9.50;;;6.13;;
59302;SDS011;45074;52.764;6.896;2023-08-24T03:59:45;10.07;;;6.57;;
59302;SDS011;45074;52.764;6.896;2023-08-24T04:02:11;11.32;;;6.40;;
59302;SDS011;45074;52.764;6.896;2023-08-24T04:04:37;12.63;;;6.75;;
59302;SDS011;45074;52.764;6.896;2023-08-24T04:07:03;9.32;;;6.25;;
59302;SDS011;45074;52.764;6.896;2023-08-24T04:09:30;9.50;;;6.18;;
59302;SDS011;45074;52.764;6.896;2023-08-24T04:11:56;12.13;;;6.75;;
59302;SDS011;45074;52.764;6.896;2023-08-24T04:14:22;11.57;;;6.55;;
59302;SDS011;45074;52.764;6.896;2023-08-24T04:16:48;11.40;;;6.78;;
59302;SDS011;45074;52.764;6.896;2023-08-24T04:19:14;11.07;;;6.68;;
59302;SDS011;45074;52.764;6.896;2023-08-24T04:21:40;11.35;;;6.72;;
59302;SDS011;45074;52.764;6.896;2023-08-24T04:24:06;9.52;;;6.22;;
59302;SDS011;45074;52.764;6.896;2023-08-24T04:26:32;13.65;;;7.18;;
59302;SDS011;45074;52.764;6.896;2023-08-24T04:28:58;13.10;;;7.05;;
59302;SDS011;45074;52.764;6.896;2023-08-24T04:31:24;11.13;;;6.75;;
59302;SDS011;45074;52.764;6.896;2023-08-24T04:33:50;11.13;;;7.10;;
59302;SDS011;45074;52.764;6.896;2023-08-24T04:36:17;12.82;;;7.03;;
59302;SDS011;45074;52.764;6.896;2023-08-24T04:38:42;12.13;;;7.22;;
59302;SDS011;45074;52.764;6.896;2023-08-24T04:41:09;12.25;;;7.00;;
59302;SDS011;45074;52.764;6.896;2023-08-24T04:43:37;9.75;;;6.75;;
59302;SDS011;45074;52.764;6.896;2023-08-24T04:46:03;12.35;;;7.03;;
59302;SDS011;45074;52.764;6.896;2023-08-24T04:48:29;11.60;;;6.45;;
59302;SDS011;45074;52.764;6.896;2023-08-24T04:50:59;10.02;;;6.38;;
59302;SDS011;45074;52.764;6.896;2023-08-24T04:53:27;10.20;;;6.05;;
59302;SDS011;45074;52.764;6.896;2023-08-24T04:55:53;11.00;;;6.55;;
59302;SDS011;45074;52.764;6.896;2023-08-24T04:58:19;10.63;;;6.57;;
59302;SDS011;45074;52.764;6.896;2023-08-24T05:00:45;11.10;;;6.68;;
59302;SDS011;45074;52.764;6.896;2023-08-24T05:03:11;12.85;;;6.25;;
59302;SDS011;45074;52.764;6.896;2023-08-24T05:05:38;11.57;;;6.15;;
59302;SDS011;45074;52.764;6.896;2023-08-24T05:08:04;10.43;;;6.60;;
59302;SDS011;45074;52.764;6.896;2023-08-24T05:10:32;12.45;;;6.20;;
59302;SDS011;45074;52.764;6.896;2023-08-24T05:12:58;11.63;;;5.75;;
59302;SDS011;45074;52.764;6.896;2023-08-24T05:15:24;10.50;;;6.13;;
59302;SDS011;45074;52.764;6.896;2023-08-24T05:17:50;9.45;;;5.72;;
59302;SDS011;45074;52.764;6.896;2023-08-24T05:20:21;9.88;;;5.60;;
59302;SDS011;45074;52.764;6.896;2023-08-24T05:22:48;9.68;;;5.53;;
59302;SDS011;45074;52.764;6.896;2023-08-24T05:25:14;10.40;;;5.22;;
59302;SDS011;45074;52.764;6.896;2023-08-24T05:27:41;9.20;;;5.20;;
59302;SDS011;45074;52.764;6.896;2023-08-24T05:30:08;10.02;;;5.72;;
59302;SDS011;45074;52.764;6.896;2023-08-24T05:32:34;11.05;;;5.30;;
59302;SDS011;45074;52.764;6.896;2023-08-24T05:35:04;9.68;;;5.18;;
59302;SDS011;45074;52.764;6.896;2023-08-24T05:37:30;9.13;;;5.00;;
59302;SDS011;45074;52.764;6.896;2023-08-24T05:39:56;8.60;;;4.95;;
59302;SDS011;45074;52.764;6.896;2023-08-24T05:42:22;9.05;;;5.00;;
59302;SDS011;45074;52.764;6.896;2023-08-24T05:44:48;9.43;;;4.97;;
59302;SDS011;45074;52.764;6.896;2023-08-24T05:47:14;10.13;;;4.90;;
59302;SDS011;45074;52.764;6.896;2023-08-24T05:49:40;9.90;;;4.72;;
59302;SDS011;45074;52.764;6.896;2023-08-24T05:52:07;10.68;;;5.53;;
59302;SDS011;45074;52.764;6.896;2023-08-24T05:54:33;10.38;;;5.25;;
59302;SDS011;45074;52.764;6.896;2023-08-24T05:56:59;10.40;;;4.95;;
59302;SDS011;45074;52.764;6.896;2023-08-24T05:59:28;10.93;;;5.18;;
59302;SDS011;45074;52.764;6.896;2023-08-24T06:01:54;8.38;;;5.13;;
59302;SDS011;45074;52.764;6.896;2023-08-24T06:04:20;9.15;;;5.05;;
59302;SDS011;45074;52.764;6.896;2023-08-24T06:06:46;10.25;;;5.95;;
59302;SDS011;45074;52.764;6.896;2023-08-24T06:09:12;11.65;;;6.35;;
59302;SDS011;45074;52.764;6.896;2023-08-24T06:11:40;9.10;;;6.40;;
59302;SDS011;45074;52.764;6.896;2023-08-24T06:14:06;11.10;;;6.15;;
59302;SDS011;45074;52.764;6.896;2023-08-24T06:16:32;11.63;;;6.70;;
59302;SDS011;45074;52.764;6.896;2023-08-24T06:18:58;10.43;;;6.80;;
59302;SDS011;45074;52.764;6.896;2023-08-24T06:21:24;11.77;;;7.38;;
59302;SDS011;45074;52.764;6.896;2023-08-24T06:23:50;12.57;;;6.82;;
59302;SDS011;45074;52.764;6.896;2023-08-24T06:26:17;16.02;;;6.90;;
59302;SDS011;45074;52.764;6.896;2023-08-24T06:28:43;13.85;;;8.00;;
59302;SDS011;45074;52.764;6.896;2023-08-24T06:31:09;13.10;;;8.35;;
59302;SDS011;45074;52.764;6.896;2023-08-24T06:33:35;13.25;;;8.38;;
59302;SDS011;45074;52.764;6.896;2023-08-24T06:36:02;14.27;;;8.77;;
59302;SDS011;45074;52.764;6.896;2023-08-24T06:38:30;12.82;;;8.77;;
59302;SDS011;45074;52.764;6.896;2023-08-24T06:40:57;13.05;;;8.23;;
59302;SDS011;45074;52.764;6.896;2023-08-24T06:43:23;12.65;;;8.48;;
59302;SDS011;45074;52.764;6.896;2023-08-24T06:45:49;14.05;;;9.07;;
59302;SDS011;45074;52.764;6.896;2023-08-24T06:48:15;16.50;;;10.07;;
59302;SDS011;45074;52.764;6.896;2023-08-24T06:50:42;13.57;;;9.02;;
59302;SDS011;45074;52.764;6.896;2023-08-24T06:53:09;15.23;;;9.25;;
59302;SDS011;45074;52.764;6.896;2023-08-24T06:55:35;14.05;;;9.27;;
59302;SDS011;45074;52.764;6.896;2023-08-24T06:58:01;15.13;;;9.60;;
59302;SDS011;45074;52.764;6.896;2023-08-24T07:00:30;13.65;;;8.95;;
59302;SDS011;45074;52.764;6.896;2023-08-24T07:02:56;14.90;;;9.00;;
59302;SDS011;45074;52.764;6.896;2023-08-24T07:05:22;14.70;;;9.50;;
59302;SDS011;45074;52.764;6.896;2023-08-24T07:07:49;14.63;;;9.95;;
59302;SDS011;45074;52.764;6.896;2023-08-24T07:10:15;15.52;;;10.48;;
59302;SDS011;45074;52.764;6.896;2023-08-24T07:12:41;16.55;;;10.35;;
59302;SDS011;45074;52.764;6.896;2023-08-24T07:15:09;13.88;;;10.02;;
59302;SDS011;45074;52.764;6.896;2023-08-24T07:17:35;12.40;;;9.10;;
59302;SDS011;45074;52.764;6.896;2023-08-24T07:20:02;16.13;;;9.90;;
59302;SDS011;45074;52.764;6.896;2023-08-24T07:22:30;15.18;;;10.00;;
59302;SDS011;45074;52.764;6.896;2023-08-24T07:24:56;14.77;;;10.00;;
59302;SDS011;45074;52.764;6.896;2023-08-24T07:27:22;12.60;;;8.00;;
59302;SDS011;45074;52.764;6.896;2023-08-24T07:29:48;13.20;;;9.10;;
59302;SDS011;45074;52.764;6.896;2023-08-24T07:32:14;15.30;;;9.23;;
59302;SDS011;45074;52.764;6.896;2023-08-24T07:34:39;13.45;;;8.82;;
59302;SDS011;45074;52.764;6.896;2023-08-24T07:37:05;14.02;;;8.55;;
59302;SDS011;45074;52.764;6.896;2023-08-24T07:39:32;16.42;;;9.23;;
59302;SDS011;45074;52.764;6.896;2023-08-24T07:41:58;13.13;;;8.98;;
59302;SDS011;45074;52.764;6.896;2023-08-24T07:44:24;13.73;;;8.68;;
59302;SDS011;45074;52.764;6.896;2023-08-24T07:46:51;14.00;;;8.90;;
59302;SDS011;45074;52.764;6.896;2023-08-24T07:49:17;13.10;;;8.85;;
59302;SDS011;45074;52.764;6.896;2023-08-24T07:51:43;13.43;;;8.85;;
59302;SDS011;45074;52.764;6.896;2023-08-24T07:54:09;11.98;;;8.65;;
59302;SDS011;45074;52.764;6.896;2023-08-24T07:56:35;12.02;;;8.05;;
59302;SDS011;45074;52.764;6.896;2023-08-24T07:59:02;12.88;;;8.50;;
59302;SDS011;45074;52.764;6.896;2023-08-24T08:01:28;11.80;;;8.32;;
59302;SDS011;45074;52.764;6.896;2023-08-24T08:03:54;15.23;;;9.02;;
59302;SDS011;45074;52.764;6.896;2023-08-24T08:06:20;12.93;;;8.50;;
59302;SDS011;45074;52.764;6.896;2023-08-24T08:08:47;11.85;;;7.95;;
59302;SDS011;45074;52.764;6.896;2023-08-24T08:11:15;11.88;;;7.65;;
59302;SDS011;45074;52.764;6.896;2023-08-24T08:13:41;12.88;;;7.97;;
59302;SDS011;45074;52.764;6.896;2023-08-24T08:16:06;13.27;;;7.70;;
59302;SDS011;45074;52.764;6.896;2023-08-24T08:18:33;14.80;;;8.05;;
59302;SDS011;45074;52.764;6.896;2023-08-24T08:21:00;11.32;;;7.85;;
59302;SDS011;45074;52.764;6.896;2023-08-24T08:23:26;11.02;;;7.63;;
59302;SDS011;45074;52.764;6.896;2023-08-24T08:25:52;11.75;;;7.50;;
59302;SDS011;45074;52.764;6.896;2023-08-24T08:28:18;11.57;;;7.50;;
59302;SDS011;45074;52.764;6.896;2023-08-24T08:30:44;12.57;;;7.70;;
59302;SDS011;45074;52.764;6.896;2023-08-24T08:33:10;10.98;;;6.95;;
59302;SDS011;45074;52.764;6.896;2023-08-24T08:35:37;11.15;;;7.20;;
59302;SDS011;45074;52.764;6.896;2023-08-24T08:38:05;12.00;;;6.53;;
59302;SDS011;45074;52.764;6.896;2023-08-24T08:40:31;12.65;;;7.07;;
59302;SDS011;45074;52.764;6.896;2023-08-24T08:42:57;10.65;;;6.28;;
59302;SDS011;45074;52.764;6.896;2023-08-24T08:45:26;10.68;;;6.25;;
59302;SDS011;45074;52.764;6.896;2023-08-24T08:48:00;12.15;;;5.88;;
59302;SDS011;45074;52.764;6.896;2023-08-24T08:50:26;10.77;;;6.63;;
59302;SDS011;45074;52.764;6.896;2023-08-24T08:52:52;9.45;;;6.18;;
59302;SDS011;45074;52.764;6.896;2023-08-24T08:55:18;10.50;;;6.50;;
59302;SDS011;45074;52.764;6.896;2023-08-24T08:57:48;9.60;;;5.95;;
59302;SDS011;45074;52.764;6.896;2023-08-24T09:00:15;11.38;;;6.80;;
59302;SDS011;45074;52.764;6.896;2023-08-24T09:02:42;12.68;;;6.63;;
59302;SDS011;45074;52.764;6.896;2023-08-24T09:05:10;10.52;;;6.18;;
59302;SDS011;45074;52.764;6.896;2023-08-24T09:07:37;12.85;;;6.20;;
59302;SDS011;45074;52.764;6.896;2023-08-24T09:10:05;10.02;;;6.13;;
59302;SDS011;45074;52.764;6.896;2023-08-24T09:12:32;11.38;;;6.45;;
59302;SDS011;45074;52.764;6.896;2023-08-24T09:14:58;9.60;;;6.63;;
59302;SDS011;45074;52.764;6.896;2023-08-24T09:17:24;9.70;;;5.82;;
59302;SDS011;45074;52.764;6.896;2023-08-24T09:19:51;9.48;;;6.07;;
59302;SDS011;45074;52.764;6.896;2023-08-24T09:22:17;9.98;;;5.75;;
59302;SDS011;45074;52.764;6.896;2023-08-24T09:24:43;11.35;;;6.25;;
59302;SDS011;45074;52.764;6.896;2023-08-24T09:27:20;9.55;;;5.43;;
59302;SDS011;45074;52.764;6.896;2023-08-24T09:29:50;9.30;;;5.80;;
59302;SDS011;45074;52.764;6.896;2023-08-24T09:32:29;11.23;;;5.90;;
59302;SDS011;45074;52.764;6.896;2023-08-24T09:35:01;11.60;;;6.60;;
59302;SDS011;45074;52.764;6.896;2023-08-24T09:37:33;10.85;;;5.93;;
59302;SDS011;45074;52.764;6.896;2023-08-24T09:40:02;10.45;;;6.32;;
59302;SDS011;45074;52.764;6.896;2023-08-24T09:42:33;10.25;;;5.88;;
59302;SDS011;45074;52.764;6.896;2023-08-24T09:45:03;9.95;;;6.10;;
59302;SDS011;45074;52.764;6.896;2023-08-24T09:47:29;8.73;;;5.35;;
59302;SDS011;45074;52.764;6.896;2023-08-24T09:49:55;9.90;;;6.07;;
59302;SDS011;45074;52.764;6.896;2023-08-24T09:52:21;10.68;;;6.20;;
59302;SDS011;45074;52.764;6.896;2023-08-24T09:54:49;8.45;;;5.20;;
59302;SDS011;45074;52.764;6.896;2023-08-24T09:57:17;10.70;;;6.68;;
59302;SDS011;45074;52.764;6.896;2023-08-24T09:59:43;9.18;;;5.50;;
59302;SDS011;45074;52.764;6.896;2023-08-24T10:02:13;9.73;;;5.82;;
59302;SDS011;45074;52.764;6.896;2023-08-24T10:04:41;11.82;;;7.13;;
59302;SDS011;45074;52.764;6.896;2023-08-24T10:07:08;10.95;;;6.40;;
59302;SDS011;45074;52.764;6.896;2023-08-24T10:09:40;9.57;;;6.70;;
59302;SDS011;45074;52.764;6.896;2023-08-24T10:12:09;11.10;;;7.25;;
59302;SDS011;45074;52.764;6.896;2023-08-24T10:17:21;10.63;;;6.65;;
59302;SDS011;45074;52.764;6.896;2023-08-24T10:19:48;11.23;;;6.18;;
59302;SDS011;45074;52.764;6.896;2023-08-24T10:22:16;9.18;;;5.80;;
59302;SDS011;45074;52.764;6.896;2023-08-24T10:24:42;10.73;;;6.78;;
59302;SDS011;45074;52.764;6.896;2023-08-24T10:27:08;9.90;;;6.80;;
59302;SDS011;45074;52.764;6.896;2023-08-24T10:29:35;10.48;;;6.80;;
59302;SDS011;45074;52.764;6.896;2023-08-24T10:32:01;10.15;;;6.70;;
59302;SDS011;45074;52.764;6.896;2023-08-24T10:34:27;11.68;;;7.45;;
59302;SDS011;45074;52.764;6.896;2023-08-24T10:36:53;12.60;;;7.13;;
59302;SDS011;45074;52.764;6.896;2023-08-24T10:39:26;8.65;;;6.43;;
59302;SDS011;45074;52.764;6.896;2023-08-24T10:41:52;12.15;;;7.20;;
59302;SDS011;45074;52.764;6.896;2023-08-24T10:44:23;11.40;;;7.00;;
59302;SDS011;45074;52.764;6.896;2023-08-24T10:54:47;9.88;;;6.47;;
59302;SDS011;45074;52.764;6.896;2023-08-24T10:57:26;9.70;;;5.80;;
59302;SDS011;45074;52.764;6.896;2023-08-24T11:00:09;9.98;;;6.60;;
59302;SDS011;45074;52.764;6.896;2023-08-24T11:02:48;10.70;;;7.10;;
59302;SDS011;45074;52.764;6.896;2023-08-24T11:05:31;12.82;;;6.47;;
59302;SDS011;45074;52.764;6.896;2023-08-24T11:08:02;9.63;;;6.32;;
59302;SDS011;45074;52.764;6.896;2023-08-24T11:13:04;9.63;;;6.20;;
59302;SDS011;45074;52.764;6.896;2023-08-24T11:15:36;9.32;;;6.35;;
59302;SDS011;45074;52.764;6.896;2023-08-24T11:20:48;8.63;;;5.30;;
59302;SDS011;45074;52.764;6.896;2023-08-24T11:23:14;9.25;;;5.55;;
59302;SDS011;45074;52.764;6.896;2023-08-24T11:25:41;10.80;;;6.22;;
59302;SDS011;45074;52.764;6.896;2023-08-24T11:28:07;10.13;;;5.40;;
59302;SDS011;45074;52.764;6.896;2023-08-24T11:30:33;7.07;;;4.72;;
59302;SDS011;45074;52.764;6.896;2023-08-24T11:33:00;10.10;;;5.47;;
59302;SDS011;45074;52.764;6.896;2023-08-24T11:35:27;10.43;;;5.57;;
59302;SDS011;45074;52.764;6.896;2023-08-24T11:37:53;8.23;;;5.45;;
59302;SDS011;45074;52.764;6.896;2023-08-24T11:40:19;9.60;;;4.85;;
59302;SDS011;45074;52.764;6.896;2023-08-24T11:42:46;9.55;;;5.20;;
59302;SDS011;45074;52.764;6.896;2023-08-24T11:45:12;10.95;;;5.95;;
59302;SDS011;45074;52.764;6.896;2023-08-24T11:47:39;8.98;;;5.53;;
59302;SDS011;45074;52.764;6.896;2023-08-24T11:50:06;8.02;;;5.22;;
59302;SDS011;45074;52.764;6.896;2023-08-24T11:52:32;8.60;;;5.20;;
59302;SDS011;45074;52.764;6.896;2023-08-24T11:55:01;9.52;;;5.50;;
59302;SDS011;45074;52.764;6.896;2023-08-24T11:57:27;9.90;;;5.00;;
59302;SDS011;45074;52.764;6.896;2023-08-24T11:59:54;8.95;;;5.65;;
59302;SDS011;45074;52.764;6.896;2023-08-24T12:02:20;8.50;;;5.85;;
59302;SDS011;45074;52.764;6.896;2023-08-24T12:04:48;8.48;;;5.15;;
59302;SDS011;45074;52.764;6.896;2023-08-24T12:07:14;11.60;;;5.80;;
59302;SDS011;45074;52.764;6.896;2023-08-24T12:09:42;9.27;;;5.30;;
59302;SDS011;45074;52.764;6.896;2023-08-24T12:12:14;10.60;;;5.93;;
59302;SDS011;45074;52.764;6.896;2023-08-24T12:14:41;9.40;;;5.50;;
59302;SDS011;45074;52.764;6.896;2023-08-24T12:17:07;8.90;;;5.60;;
59302;SDS011;45074;52.764;6.896;2023-08-24T12:19:34;11.85;;;6.25;;
59302;SDS011;45074;52.764;6.896;2023-08-24T12:22:00;7.90;;;5.28;;
59302;SDS011;45074;52.764;6.896;2023-08-24T12:24:26;8.98;;;6.00;;
59302;SDS011;45074;52.764;6.896;2023-08-24T12:26:56;9.23;;;6.05;;
59302;SDS011;45074;52.764;6.896;2023-08-24T12:29:28;9.18;;;5.68;;
59302;SDS011;45074;52.764;6.896;2023-08-24T12:31:57;9.70;;;5.15;;
59302;SDS011;45074;52.764;6.896;2023-08-24T12:34:23;8.25;;;5.63;;
59302;SDS011;45074;52.764;6.896;2023-08-24T12:36:49;9.43;;;6.13;;
59302;SDS011;45074;52.764;6.896;2023-08-24T12:39:16;7.97;;;5.50;;
59302;SDS011;45074;52.764;6.896;2023-08-24T12:41:42;9.10;;;6.43;;
59302;SDS011;45074;52.764;6.896;2023-08-24T12:44:08;8.88;;;5.90;;
59302;SDS011;45074;52.764;6.896;2023-08-24T12:46:34;10.13;;;5.97;;
59302;SDS011;45074;52.764;6.896;2023-08-24T12:49:01;9.82;;;5.72;;
59302;SDS011;45074;52.764;6.896;2023-08-24T12:51:27;9.65;;;5.32;;
59302;SDS011;45074;52.764;6.896;2023-08-24T12:53:53;8.60;;;6.22;;
59302;SDS011;45074;52.764;6.896;2023-08-24T12:56:19;9.73;;;6.05;;
59302;SDS011;45074;52.764;6.896;2023-08-24T12:58:45;8.57;;;5.60;;
59302;SDS011;45074;52.764;6.896;2023-08-24T13:01:11;11.52;;;6.53;;
59302;SDS011;45074;52.764;6.896;2023-08-24T13:03:37;7.57;;;5.72;;
59302;SDS011;45074;52.764;6.896;2023-08-24T13:06:05;9.77;;;5.78;;
59302;SDS011;45074;52.764;6.896;2023-08-24T13:08:31;9.73;;;5.57;;
59302;SDS011;45074;52.764;6.896;2023-08-24T13:10:57;8.45;;;5.30;;
59302;SDS011;45074;52.764;6.896;2023-08-24T13:13:23;7.88;;;5.78;;
59302;SDS011;45074;52.764;6.896;2023-08-24T13:15:49;9.48;;;5.80;;
59302;SDS011;45074;52.764;6.896;2023-08-24T13:18:16;8.02;;;5.10;;
59302;SDS011;45074;52.764;6.896;2023-08-24T13:20:42;9.38;;;6.00;;
59302;SDS011;45074;52.764;6.896;2023-08-24T13:23:08;8.52;;;5.20;;
59302;SDS011;45074;52.764;6.896;2023-08-24T13:25:34;9.38;;;5.13;;
59302;SDS011;45074;52.764;6.896;2023-08-24T13:28:00;8.63;;;5.82;;
59302;SDS011;45074;52.764;6.896;2023-08-24T13:30:26;9.75;;;5.70;;
59302;SDS011;45074;52.764;6.896;2023-08-24T13:32:52;8.32;;;4.70;;
59302;SDS011;45074;52.764;6.896;2023-08-24T13:35:18;8.80;;;5.47;;
59302;SDS011;45074;52.764;6.896;2023-08-24T13:37:44;9.15;;;5.10;;
59302;SDS011;45074;52.764;6.896;2023-08-24T13:40:11;7.95;;;5.80;;
59302;SDS011;45074;52.764;6.896;2023-08-24T13:42:37;8.73;;;4.60;;
59302;SDS011;45074;52.764;6.896;2023-08-24T13:45:03;10.07;;;5.30;;
59302;SDS011;45074;52.764;6.896;2023-08-24T13:47:29;7.18;;;5.00;;
59302;SDS011;45074;52.764;6.896;2023-08-24T13:49:55;9.52;;;5.50;;
59302;SDS011;45074;52.764;6.896;2023-08-24T13:52:22;8.57;;;5.10;;
59302;SDS011;45074;52.764;6.896;2023-08-24T13:54:48;8.32;;;4.82;;
59302;SDS011;45074;52.764;6.896;2023-08-24T13:57:14;9.32;;;5.95;;
59302;SDS011;45074;52.764;6.896;2023-08-24T13:59:40;10.38;;;5.30;;
59302;SDS011;45074;52.764;6.896;2023-08-24T14:02:06;9.00;;;4.60;;
59302;SDS011;45074;52.764;6.896;2023-08-24T14:04:33;8.98;;;5.07;;
59302;SDS011;45074;52.764;6.896;2023-08-24T14:06:59;9.57;;;4.72;;
59302;SDS011;45074;52.764;6.896;2023-08-24T14:09:25;8.10;;;4.80;;
59302;SDS011;45074;52.764;6.896;2023-08-24T14:11:51;10.43;;;5.50;;
59302;SDS011;45074;52.764;6.896;2023-08-24T14:14:17;7.25;;;4.60;;
59302;SDS011;45074;52.764;6.896;2023-08-24T14:16:44;6.90;;;4.50;;
59302;SDS011;45074;52.764;6.896;2023-08-24T14:19:11;7.80;;;4.28;;
59302;SDS011;45074;52.764;6.896;2023-08-24T14:21:37;8.63;;;5.05;;
59302;SDS011;45074;52.764;6.896;2023-08-24T14:24:03;10.98;;;5.57;;
59302;SDS011;45074;52.764;6.896;2023-08-24T14:26:29;6.75;;;4.53;;
59302;SDS011;45074;52.764;6.896;2023-08-24T14:28:56;8.27;;;4.95;;
59302;SDS011;45074;52.764;6.896;2023-08-24T14:31:23;6.97;;;4.40;;
59302;SDS011;45074;52.764;6.896;2023-08-24T14:33:49;7.05;;;4.70;;
59302;SDS011;45074;52.764;6.896;2023-08-24T14:36:16;8.70;;;4.70;;
59302;SDS011;45074;52.764;6.896;2023-08-24T14:38:42;7.35;;;5.00;;
59302;SDS011;45074;52.764;6.896;2023-08-24T14:41:09;8.50;;;4.72;;
59302;SDS011;45074;52.764;6.896;2023-08-24T14:43:35;7.45;;;4.97;;
59302;SDS011;45074;52.764;6.896;2023-08-24T14:46:01;8.45;;;4.70;;
59302;SDS011;45074;52.764;6.896;2023-08-24T14:48:27;12.32;;;5.55;;
59302;SDS011;45074;52.764;6.896;2023-08-24T14:50:53;8.68;;;5.28;;
59302;SDS011;45074;52.764;6.896;2023-08-24T14:53:19;7.88;;;4.57;;
59302;SDS011;45074;52.764;6.896;2023-08-24T14:55:45;10.05;;;5.32;;